Pennock, MN

7:57 PM CST on February 20, 2017 (GMT -0600)
Willmar

Weather History for KBDH - January, 2014

Change the Weather History Date:

Tuesday, January 28, 2014

  Actual Average (KBBB) Record (KBBB)
Temperature  
Mean Temperature -6 °F -  
Max Temperature 1 °F 20 °F 45 °F (1990)
Min Temperature -14 °F 2 °F -25 °F (1966)
Degree Days  
Heating Degree Days 72    
Moisture  
Dew Point -15 °F    
Average Humidity 66    
Maximum Humidity 77    
Minimum Humidity 56    
Precipitation  
Precipitation 0.00 in - - ()
Sea Level Pressure  
Sea Level Pressure 30.24 in    
Wind  
Wind Speed 10 mph (West)    
Max Wind Speed 17 mph    
Max Gust Speed 23 mph    
Visibility 10 miles    
Events      
Averages and records for this station are not official NWS values.
T = Trace of Precipitation, MM = Missing Value Source: NWS Daily Summary

Daily Weather History Graph

Daily Weather History Graph

Search for Another Location

Airport or City:

Trip Planner

Search our weather history database for the weather conditions in past years. The results will help you decide how hot, cold, wet, or windy it might be!

Date:

Astronomy

Jan. 28, 2014 Rise Set
Actual Time 7:44 AM CST 5:22 PM CST
Civil Twilight 7:13 AM CST 5:54 PM CST
Nautical Twilight 6:37 AM CST 6:29 PM CST
Astronomical Twilight 6:03 AM CST 7:04 PM CST
Moon 5:29 AM CST (1/28) 3:12 PM CST (1/28)
Length of Visible Light 10h 40m
Length of Day
9h 37m
Waning Crescent, 7% of the Moon is Illuminated
Jan 28
Waning Crescent
Jan 30
New
Feb 6
First Quarter
Feb 14
Full
Feb 22
Last Quarter

Hourly Weather History & Observations

Time (CST) Temp. Windchill Dew Point Humidity Pressure Visibility Wind Dir Wind Speed Gust Speed Precip Events Conditions
12:01 AM -11.2 °F -27.8 °F -18.4 °F 70% 30.34 in 10.0 mi West 8.1 mph - N/A   Clear
12:21 AM -11.2 °F -29.0 °F -18.4 °F 70% 30.34 in 10.0 mi West 9.2 mph - N/A   Clear
12:41 AM -9.4 °F -25.6 °F -18.4 °F 65% 30.34 in 10.0 mi West 8.1 mph - N/A   Clear
1:01 AM -9.4 °F -27.9 °F -18.4 °F 65% 30.33 in 10.0 mi West 10.4 mph - N/A   Clear
1:21 AM -11.2 °F -27.8 °F -18.4 °F 70% 30.33 in 10.0 mi West 8.1 mph - N/A   Clear
1:41 AM -11.2 °F -29.0 °F -18.4 °F 70% 30.33 in 10.0 mi West 9.2 mph - N/A   Clear
2:01 AM -11.2 °F -29.0 °F -18.4 °F 70% 30.33 in 10.0 mi West 9.2 mph - N/A   Clear
2:21 AM -11.2 °F -29.0 °F -18.4 °F 70% 30.32 in 10.0 mi West 9.2 mph - N/A   Clear
2:41 AM -11.2 °F -30.1 °F -18.4 °F 70% 30.32 in 10.0 mi West 10.4 mph - N/A   Clear
3:01 AM -11.2 °F -30.1 °F -18.4 °F 70% 30.32 in 10.0 mi West 10.4 mph - N/A   Clear
3:21 AM -11.2 °F -30.1 °F -18.4 °F 70% 30.32 in 10.0 mi West 10.4 mph - N/A   Clear
3:41 AM -11.2 °F -29.0 °F -18.4 °F 70% 30.32 in 10.0 mi West 9.2 mph - N/A   Clear
4:01 AM -11.2 °F -29.0 °F -18.4 °F 70% 30.31 in 10.0 mi West 9.2 mph - N/A   Clear
4:21 AM -11.2 °F -29.0 °F -18.4 °F 70% 30.32 in 10.0 mi West 9.2 mph - N/A   Clear
4:41 AM -11.2 °F -27.8 °F -18.4 °F 70% 30.32 in 10.0 mi West 8.1 mph - N/A   Clear
5:01 AM -11.2 °F -30.1 °F -18.4 °F 70% 30.32 in 10.0 mi West 10.4 mph - N/A   Clear
5:41 AM -13.0 °F -31.3 °F -18.4 °F 77% 30.31 in 10.0 mi West 9.2 mph - N/A   Clear
6:01 AM -11.2 °F -31.1 °F -18.4 °F 70% 30.32 in 10.0 mi West 11.5 mph - N/A   Clear
6:21 AM -13.0 °F -32.4 °F -18.4 °F 77% 30.32 in 10.0 mi West 10.4 mph - N/A   Clear
6:41 AM -13.0 °F -31.3 °F -20.2 °F 70% 30.31 in 10.0 mi West 9.2 mph - N/A   Clear
7:01 AM -11.2 °F -31.1 °F -18.4 °F 70% 30.31 in 10.0 mi West 11.5 mph - N/A   Clear
7:21 AM -14.8 °F -33.5 °F -20.2 °F 77% 30.30 in 10.0 mi West 9.2 mph - N/A   Clear
7:41 AM -14.8 °F -30.8 °F -20.2 °F 77% 30.30 in 10.0 mi West 6.9 mph - N/A   Clear
8:01 AM -14.8 °F -30.8 °F -20.2 °F 77% 30.30 in 10.0 mi West 6.9 mph - N/A   Clear
8:21 AM -13.0 °F -32.4 °F -20.2 °F 70% 30.30 in 10.0 mi West 10.4 mph - N/A   Clear
8:41 AM -11.2 °F -31.1 °F -20.2 °F 64% 30.29 in 10.0 mi West 11.5 mph - N/A   Clear
9:01 AM -11.2 °F -30.1 °F -18.4 °F 70% 30.29 in 10.0 mi West 10.4 mph - N/A   Clear
9:21 AM -11.2 °F -31.1 °F -18.4 °F 70% 30.29 in 10.0 mi West 11.5 mph - N/A   Clear
9:41 AM -9.4 °F -28.9 °F -18.4 °F 65% 30.29 in 10.0 mi West 11.5 mph - N/A   Clear
10:01 AM -9.4 °F -27.9 °F -16.6 °F 71% 30.30 in 10.0 mi West 10.4 mph - N/A   Clear
10:21 AM -7.6 °F -29.1 °F -16.6 °F 65% 30.30 in 10.0 mi West 15.0 mph - N/A   Clear
10:41 AM -7.6 °F -29.1 °F -16.6 °F 65% 30.29 in 10.0 mi West 15.0 mph - N/A   Clear
11:01 AM -5.8 °F -26.8 °F -16.6 °F 60% 30.29 in 10.0 mi WNW 15.0 mph - N/A   Clear
11:21 AM -5.8 °F -26.0 °F -14.8 °F 65% 30.28 in 10.0 mi WNW 13.8 mph 19.6 mph N/A   Clear
11:41 AM -5.8 °F -26.0 °F -14.8 °F 65% 30.27 in 10.0 mi WNW 13.8 mph - N/A   Clear
12:01 PM -4.0 °F -24.5 °F -14.8 °F 60% 30.27 in 10.0 mi West 15.0 mph 23.0 mph N/A   Clear
12:21 PM -4.0 °F -25.2 °F -14.8 °F 60% 30.26 in 10.0 mi West 16.1 mph - N/A   Clear
12:41 PM -2.2 °F -21.5 °F -13.0 °F 60% 30.26 in 10.0 mi West 13.8 mph - N/A   Clear
1:01 PM -2.2 °F -22.2 °F -11.2 °F 66% 30.24 in 10.0 mi West 15.0 mph - N/A   Clear
1:21 PM -0.4 °F -19.9 °F -11.2 °F 60% 30.24 in 10.0 mi WNW 15.0 mph - N/A   Clear
1:41 PM -0.4 °F -21.2 °F -11.2 °F 60% 30.23 in 10.0 mi West 17.3 mph - N/A   Clear
2:01 PM -0.4 °F -21.2 °F -11.2 °F 60% 30.23 in 10.0 mi WNW 17.3 mph 20.7 mph N/A   Clear
2:21 PM -0.4 °F -19.9 °F -11.2 °F 60% 30.21 in 10.0 mi West 15.0 mph - N/A   Clear
2:41 PM 1.4 °F -16.9 °F -11.2 °F 56% 30.20 in 10.0 mi West 13.8 mph - N/A   Clear
3:01 PM 1.4 °F -15.3 °F -11.2 °F 56% 30.20 in 10.0 mi West 11.5 mph 18.4 mph N/A   Clear
3:21 PM 1.4 °F -18.2 °F -11.2 °F 56% 30.20 in 10.0 mi West 16.1 mph - N/A   Clear
3:41 PM 1.4 °F -16.9 °F -11.2 °F 56% 30.20 in 10.0 mi West 13.8 mph - N/A   Clear
4:01 PM 1.4 °F -17.6 °F -11.2 °F 56% 30.20 in 10.0 mi West 15.0 mph - N/A   Clear
4:21 PM 1.4 °F -16.1 °F -11.2 °F 56% 30.19 in 10.0 mi West 12.7 mph - N/A   Clear
4:41 PM 1.4 °F -15.3 °F -11.2 °F 56% 30.18 in 10.0 mi West 11.5 mph - N/A   Clear
5:01 PM 1.4 °F -13.5 °F -11.2 °F 56% 30.18 in 10.0 mi West 9.2 mph - N/A   Clear
5:21 PM -0.4 °F -18.4 °F -11.2 °F 60% 30.17 in 10.0 mi West 12.7 mph 18.4 mph N/A   Clear
5:41 PM -0.4 °F -16.7 °F -11.2 °F 60% 30.18 in 10.0 mi West 10.4 mph - N/A   Clear
6:01 PM -0.4 °F -14.7 °F -11.2 °F 60% 30.17 in 10.0 mi West 8.1 mph - N/A   Clear
6:21 PM -0.4 °F -14.7 °F -11.2 °F 60% 30.17 in 10.0 mi West 8.1 mph - N/A   Clear
6:41 PM -0.4 °F -14.7 °F -11.2 °F 60% 30.17 in 10.0 mi West 8.1 mph - N/A   Clear
7:01 PM -2.2 °F -15.6 °F -11.2 °F 66% 30.17 in 10.0 mi West 6.9 mph - N/A   Clear
7:21 PM -4.0 °F -19.0 °F -11.2 °F 71% 30.15 in 10.0 mi WSW 8.1 mph - N/A   Clear
7:41 PM -5.8 °F -19.9 °F -13.0 °F 71% 30.15 in 10.0 mi WSW 6.9 mph - N/A   Clear
8:01 PM -5.8 °F -23.4 °F -13.0 °F 71% 30.13 in 10.0 mi WSW 10.4 mph - N/A   Clear
8:21 PM -4.0 °F -21.2 °F -11.2 °F 71% 30.12 in 10.0 mi WSW 10.4 mph - N/A   Clear
8:41 PM -4.0 °F -20.2 °F -11.2 °F 71% 30.12 in 10.0 mi West 9.2 mph - N/A   Clear
9:01 PM -5.8 °F -21.2 °F -13.0 °F 71% 30.11 in 10.0 mi WSW 8.1 mph - N/A   Clear
9:21 PM -5.8 °F -18.4 °F -13.0 °F 71% 30.11 in 10.0 mi West 5.8 mph - N/A   Clear
9:41 PM -5.8 °F -19.9 °F -14.8 °F 65% 30.10 in 10.0 mi WSW 6.9 mph - N/A   Clear
10:01 PM -7.6 °F -22.1 °F -14.8 °F 71% 30.09 in 10.0 mi WSW 6.9 mph - N/A   Clear
10:21 PM -5.8 °F -21.2 °F -14.8 °F 65% 30.09 in 10.0 mi SW 8.1 mph - N/A   Clear
10:41 PM -7.6 °F -24.6 °F -14.8 °F 71% 30.08 in 10.0 mi SW 9.2 mph - N/A   Clear
11:01 PM -7.6 °F -24.6 °F -14.8 °F 71% 30.07 in 10.0 mi WSW 9.2 mph - N/A   Clear
11:21 PM -7.6 °F -24.6 °F -14.8 °F 71% 30.07 in 10.0 mi WSW 9.2 mph - N/A   Clear
11:41 PM -5.8 °F -22.4 °F -14.8 °F 65% 30.07 in 10.0 mi WSW 9.2 mph - N/A   Clear